createdAt,value
2023-09-27T00:01:15.584Z,6.6
2023-09-27T00:03:17.433Z,7.4
2023-09-27T00:05:22.552Z,6
2023-09-27T00:11:28.036Z,7
2023-09-27T00:13:29.909Z,7.1
2023-09-27T00:15:31.781Z,7.3
2023-09-27T00:17:33.724Z,7.4
2023-09-27T00:19:38.652Z,7.4
2023-09-27T00:21:40.537Z,7.8
2023-09-27T00:23:42.390Z,7.5
2023-09-27T00:25:44.242Z,6.9
2023-09-27T00:27:46.140Z,7.6
2023-09-27T00:29:48.007Z,7.3
2023-09-27T00:31:50.011Z,6.6
2023-09-27T00:33:56.413Z,8.1
2023-09-27T00:35:58.288Z,7.3
2023-09-27T00:38:00.276Z,7.7
2023-09-27T00:40:28.690Z,8.4
2023-09-27T00:42:30.541Z,7.6
2023-09-27T00:44:32.470Z,7
2023-09-27T00:46:37.480Z,9.1
2023-09-27T00:48:39.369Z,9.1
2023-09-27T00:50:41.176Z,6.7
2023-09-27T00:52:43.050Z,6.1
2023-09-27T01:04:57.479Z,7
2023-09-27T01:11:03.152Z,5.9
2023-09-27T01:13:05.018Z,7.2
2023-09-27T01:34:32.484Z,5.8
2023-09-27T01:36:34.362Z,5.7
2023-09-27T01:38:36.306Z,6.9
2023-09-27T01:40:38.210Z,4.9
2023-09-27T01:42:43.135Z,5.8
2023-09-27T01:44:44.989Z,6.2
2023-09-27T01:46:46.866Z,5.3
2023-09-27T01:48:48.740Z,6
2023-09-27T01:50:50.642Z,6.1
2023-09-27T01:52:52.526Z,6.9
2023-09-27T01:54:54.361Z,6.8
2023-09-27T01:56:59.372Z,7.5
2023-09-27T01:59:01.263Z,6.9
2023-09-27T02:01:03.140Z,7
2023-09-27T02:05:06.952Z,7.3
2023-09-27T02:07:08.731Z,7
2023-09-27T02:09:10.599Z,7.6
2023-09-27T02:13:17.524Z,7.8
2023-09-27T02:15:19.371Z,8
2023-09-27T02:17:21.255Z,7.8
2023-09-27T02:19:23.093Z,7.4
2023-09-27T02:21:25.002Z,7.4
2023-09-27T02:23:26.900Z,8.4
2023-09-27T02:25:31.884Z,7
2023-09-27T02:27:33.774Z,7.5
2023-09-27T02:32:40.050Z,7.3
2023-09-27T02:34:41.888Z,7.3
2023-09-27T02:36:43.748Z,8.2
2023-09-27T02:38:48.763Z,8.4
2023-09-27T02:40:50.638Z,6.6
2023-09-27T02:42:52.548Z,7.7
2023-09-27T02:44:54.410Z,7.4
2023-09-27T03:13:26.931Z,7.4
2023-09-27T03:15:28.909Z,7.9
2023-09-27T03:17:30.820Z,8.6
2023-09-27T03:19:32.586Z,7
2023-09-27T03:21:37.631Z,8.4
2023-09-27T03:23:39.572Z,9.4
2023-09-27T03:25:41.397Z,9.2
2023-09-27T03:43:02.127Z,10.3
2023-09-27T03:45:04.001Z,9.8
2023-09-27T03:53:14.673Z,10.8
2023-09-27T03:55:16.550Z,10.6
2023-09-27T03:59:20.371Z,10
2023-09-27T04:01:22.257Z,10.1
2023-09-27T04:03:27.320Z,9.5
2023-09-27T04:05:29.137Z,8.8
2023-09-27T04:09:32.885Z,9.3
2023-09-27T04:11:34.794Z,8.4
2023-09-27T04:13:36.614Z,7.7
2023-09-27T04:15:38.541Z,9.9
2023-09-27T04:17:43.642Z,8.1
2023-09-27T04:21:47.303Z,9.8
2023-09-27T04:34:28.392Z,9.9
2023-09-27T04:36:30.294Z,10.5
2023-09-27T04:40:34.042Z,11.2
2023-09-27T04:44:41.002Z,11.6
2023-09-27T04:48:44.713Z,11.3
2023-09-27T04:50:46.595Z,11.1
2023-09-27T04:52:48.467Z,12.1
2023-09-27T05:05:02.932Z,13.7
2023-09-27T05:07:04.770Z,12.7
2023-09-27T05:09:06.676Z,14.5
2023-09-27T05:11:08.612Z,15.7
2023-09-27T05:15:15.409Z,13.3
2023-09-27T05:17:17.424Z,13.3
2023-09-27T05:18:19.850Z,16.7
2023-09-27T05:34:38.020Z,13
2023-09-27T05:38:41.807Z,13
2023-09-27T05:40:46.785Z,11.8
2023-09-27T05:42:48.660Z,12.7
2023-09-27T05:44:50.544Z,12
2023-09-27T05:46:52.459Z,13.1
2023-09-27T05:48:54.552Z,11.1
2023-09-27T05:50:56.209Z,12.4
2023-09-27T05:52:58.082Z,12.2
2023-09-27T05:55:03.125Z,12.9
2023-09-27T05:57:04.997Z,13.4
2023-09-27T05:59:06.922Z,14.1
2023-09-27T06:01:08.801Z,11.7
2023-09-27T06:03:10.753Z,10.2
2023-09-27T06:05:12.705Z,11.5
2023-09-27T06:07:14.406Z,11.3
2023-09-27T06:11:21.304Z,10
2023-09-27T06:13:23.155Z,11.8
2023-09-27T06:14:25.727Z,11.9
2023-09-27T06:16:27.630Z,12.7
2023-09-27T06:18:29.458Z,11.2
2023-09-27T06:22:37.901Z,10.7
2023-09-27T06:24:39.729Z,11.8
2023-09-27T06:38:56.332Z,12.9
2023-09-27T06:49:05.414Z,11.5
2023-09-27T06:51:10.388Z,11.3
2023-09-27T06:59:17.905Z,12.5
2023-09-27T07:01:19.785Z,10.7
2023-09-27T07:03:21.742Z,11.6
2023-09-27T07:05:26.671Z,12.7
2023-09-27T07:07:28.492Z,10.8
2023-09-27T07:09:30.363Z,11.5
2023-09-27T07:10:32.886Z,14.5
2023-09-27T07:14:36.648Z,13.2
2023-09-27T07:18:43.616Z,13.6
2023-09-27T07:22:47.241Z,12.3
2023-09-27T07:24:49.137Z,13.5
2023-09-27T07:30:54.773Z,12.4
2023-09-27T07:32:59.812Z,12.4
2023-09-27T07:35:01.687Z,13
2023-09-27T07:43:09.073Z,12.4
2023-09-27T07:45:10.965Z,13.4
2023-09-27T07:49:17.790Z,12.1
2023-09-27T07:51:19.679Z,13.5
2023-09-27T07:53:21.559Z,14.2
2023-09-27T07:55:23.425Z,14.2
2023-09-27T07:57:25.249Z,13
2023-09-27T07:59:27.135Z,12.1
2023-09-27T08:01:32.359Z,12.4
2023-09-27T08:03:34.251Z,12.7
2023-09-27T08:05:35.825Z,12.5
2023-09-27T08:08:04.401Z,13.7
2023-09-27T08:10:19.183Z,12.8
2023-09-27T08:12:08.056Z,14.4
2023-09-27T08:16:14.922Z,15.2
2023-09-27T08:20:18.615Z,14.1
2023-09-27T08:22:20.433Z,15
2023-09-27T08:24:22.302Z,14.4
2023-09-27T08:30:30.994Z,13.9
2023-09-27T08:32:32.880Z,12.8
2023-09-27T08:34:34.665Z,13.3
2023-09-27T08:42:45.199Z,11.6
2023-09-27T08:46:48.896Z,13.3
2023-09-27T08:50:52.594Z,11.3
2023-09-27T08:57:01.204Z,10.9
2023-09-27T08:59:03.028Z,12.7
2023-09-27T09:01:04.836Z,13.4
2023-09-27T09:02:07.371Z,11.2
2023-09-27T09:04:09.259Z,10.5
2023-09-27T09:10:17.786Z,9.2
2023-09-27T09:16:23.205Z,9.2
2023-09-27T09:18:24.972Z,8
2023-09-27T09:20:26.793Z,8.3
2023-09-27T09:22:28.536Z,8.3
2023-09-27T09:24:33.493Z,7.6
2023-09-27T09:26:35.330Z,7.7
2023-09-27T09:28:37.154Z,8.8
2023-09-27T09:38:49.233Z,10
2023-09-27T09:40:50.960Z,8.5
2023-09-27T09:42:52.942Z,10.7
2023-09-27T09:46:56.269Z,12.2
2023-09-27T09:48:58.063Z,11.3
2023-09-27T09:50:59.870Z,11.5
2023-09-27T09:53:04.794Z,11.1
2023-09-27T09:55:17.941Z,12.7
2023-09-27T09:57:16.047Z,12.2
2023-09-27T09:58:10.861Z,11.6
2023-09-27T10:14:28.314Z,12.6
2023-09-27T10:16:30.055Z,12.4
2023-09-27T10:18:31.889Z,13.4
2023-09-27T10:20:36.782Z,13.3
2023-09-27T10:22:38.641Z,11.3
2023-09-27T10:24:40.347Z,12.5
2023-09-27T10:26:42.154Z,11.6
2023-09-27T10:28:43.895Z,12.4
2023-09-27T10:30:45.690Z,11.7
2023-09-27T10:32:48.267Z,10.4
2023-09-27T10:34:52.422Z,9.9
2023-09-27T10:37:04.502Z,9.4
2023-09-27T10:38:55.988Z,13.8
2023-09-27T10:40:57.750Z,10.5
2023-09-27T10:45:01.327Z,10.6
2023-09-27T10:47:03.104Z,11.5
2023-09-27T10:51:09.810Z,11.1
2023-09-27T10:54:14.040Z,11.3
2023-09-27T10:56:15.810Z,10.6
2023-09-27T10:58:17.587Z,9.6
2023-09-27T11:00:19.374Z,8.1
2023-09-27T11:02:24.299Z,7.4
2023-09-27T11:06:28.079Z,8.8
2023-09-27T11:08:29.678Z,9.5
2023-09-27T11:10:31.400Z,8.8
2023-09-27T11:12:33.171Z,8.1
2023-09-27T11:16:39.896Z,8.7
2023-09-27T11:18:41.720Z,7.3
2023-09-27T11:20:43.560Z,7.4
2023-09-27T11:22:45.217Z,6.9
2023-09-27T11:24:46.967Z,7.7
2023-09-27T11:28:50.507Z,6.8
2023-09-27T11:30:55.443Z,7.9
2023-09-27T11:32:57.284Z,5.6
2023-09-27T11:34:58.987Z,6.8
2023-09-27T11:37:00.743Z,10.9
2023-09-27T11:39:02.546Z,7
2023-09-27T11:41:04.325Z,7.3
2023-09-27T11:45:11.016Z,7.8
2023-09-27T11:47:12.876Z,7.5
2023-09-27T11:51:42.896Z,6.9
2023-09-27T11:55:46.367Z,6.4
2023-09-27T11:57:51.363Z,8.7
2023-09-27T11:59:53.102Z,7.4
2023-09-27T12:05:58.805Z,6.6
2023-09-27T12:08:00.129Z,6.2
2023-09-27T12:14:10.151Z,6.5
2023-09-27T12:16:11.845Z,5.8
2023-09-27T12:18:13.618Z,4.8
2023-09-27T12:20:32.070Z,5.3
2023-09-27T12:22:17.046Z,5.7
2023-09-27T12:24:18.785Z,4.5
2023-09-27T12:26:23.760Z,5.8
2023-09-27T12:28:25.447Z,4.3
2023-09-27T12:30:27.207Z,4.5
2023-09-27T12:32:28.982Z,5.9
2023-09-27T12:34:30.694Z,5.5
2023-09-27T12:36:32.444Z,5.2
2023-09-27T12:38:34.219Z,5.7
2023-09-27T12:47:46.892Z,6
2023-09-27T12:49:48.545Z,6.4
2023-09-27T12:51:50.348Z,6.3
2023-09-27T12:53:55.260Z,8.5
2023-09-27T12:55:56.950Z,6.3
2023-09-27T12:57:58.703Z,4.9
2023-09-27T13:06:05.693Z,5.4
2023-09-27T13:10:12.357Z,5
2023-09-27T13:16:17.603Z,6.2
2023-09-27T13:20:21.127Z,5.5
2023-09-27T13:22:26.016Z,5.9
2023-09-27T13:24:27.750Z,5.3
2023-09-27T13:26:29.518Z,5.8
2023-09-27T13:28:31.253Z,7.8
2023-09-27T13:32:34.821Z,5.2
2023-09-27T13:34:36.498Z,4.6
2023-09-27T13:38:43.185Z,5.1
2023-09-27T13:40:44.927Z,4
2023-09-27T13:47:52.657Z,3.9
2023-09-27T13:51:59.240Z,5
2023-09-27T13:54:00.980Z,4.8
2023-09-27T13:56:02.769Z,5
2023-09-27T13:58:04.465Z,5
2023-09-27T14:00:06.191Z,9.2
2023-09-27T14:02:07.934Z,4.6
2023-09-27T14:04:12.844Z,4.6
2023-09-27T14:06:14.630Z,8.8
2023-09-27T14:08:16.342Z,5.3
2023-09-27T14:10:18.045Z,4.9
2023-09-27T14:12:19.769Z,5
2023-09-27T14:16:23.372Z,5.4
2023-09-27T14:18:28.157Z,5.8
2023-09-27T14:20:29.830Z,6.9
2023-09-27T14:22:31.538Z,4.6
2023-09-27T14:24:33.238Z,5.4
2023-09-27T14:26:34.952Z,6
2023-09-27T14:28:36.639Z,5.4
2023-09-27T14:30:38.337Z,5.5
2023-09-27T14:32:43.397Z,6.2
2023-09-27T14:36:46.662Z,5.3
2023-09-27T14:37:49.214Z,4.7
2023-09-27T14:39:50.829Z,11.5
2023-09-27T14:41:52.552Z,6.3
2023-09-27T14:43:54.539Z,5.3
2023-09-27T14:45:59.248Z,5.6
2023-09-27T14:50:02.627Z,6.7
2023-09-27T14:52:04.370Z,6.3
2023-09-27T14:56:07.825Z,7
2023-09-27T14:58:09.565Z,6
2023-09-27T15:00:14.497Z,6.3
2023-09-27T15:04:18.079Z,6.1
2023-09-27T15:06:19.701Z,5.8
2023-09-27T15:10:23.179Z,5.6
2023-09-27T15:12:24.924Z,8.5
2023-09-27T15:14:29.831Z,6.6
2023-09-27T15:16:31.677Z,6.7
2023-09-27T15:18:33.428Z,5.3
2023-09-27T15:20:35.084Z,6.1
2023-09-27T15:22:36.876Z,5.6
2023-09-27T15:24:38.688Z,5.3
2023-09-27T15:26:40.392Z,7.1
2023-09-27T15:28:45.397Z,6.6
2023-09-27T15:30:47.071Z,7.4
2023-09-27T15:32:48.874Z,6.3
2023-09-27T15:35:17.210Z,7.3
2023-09-27T15:45:29.219Z,6
2023-09-27T15:49:32.769Z,11.8
2023-09-27T15:53:36.253Z,6.5
2023-09-27T15:55:41.362Z,6.6
2023-09-27T16:07:51.865Z,6.3
2023-09-27T16:14:00.399Z,6.4
2023-09-27T16:16:02.136Z,5.8
2023-09-27T16:18:03.940Z,6.8
2023-09-27T16:20:05.695Z,7.6
2023-09-27T16:24:12.417Z,7
2023-09-27T16:31:20.273Z,10.2
2023-09-27T16:33:22.127Z,6.8
2023-09-27T16:35:23.824Z,7
2023-09-27T16:37:28.769Z,15.3
2023-09-27T16:41:32.361Z,8.4
2023-09-27T16:43:34.162Z,6.7
2023-09-27T16:45:35.975Z,8
2023-09-27T16:47:37.722Z,7.3
2023-09-27T16:49:39.526Z,7.7
2023-09-27T16:51:44.460Z,7.6
2023-09-27T16:53:46.255Z,6.8
2023-09-27T16:59:51.642Z,7.2
2023-09-27T17:01:53.499Z,7
2023-09-27T17:03:55.634Z,7.1
2023-09-27T17:06:00.199Z,6.9
2023-09-27T17:08:02.035Z,7.3
2023-09-27T17:10:03.786Z,7.7
2023-09-27T17:12:05.576Z,7
2023-09-27T17:14:07.415Z,8.9
2023-09-27T17:18:10.961Z,8.2
2023-09-27T17:20:15.939Z,8.4
2023-09-27T17:22:17.718Z,7.4
2023-09-27T17:25:22.081Z,9.2
2023-09-27T17:27:23.798Z,9.4
2023-09-27T17:31:27.521Z,9.1
2023-09-27T17:33:32.548Z,8.5
2023-09-27T17:47:48.235Z,9.5
2023-09-27T17:59:59.016Z,8.8
2023-09-27T18:02:04.095Z,9.4
2023-09-27T18:04:05.928Z,9.1
2023-09-27T18:06:10.408Z,9.1
2023-09-27T18:08:10.929Z,9.4
2023-09-27T18:10:12.732Z,9.8
2023-09-27T18:12:14.534Z,9
2023-09-27T18:14:16.343Z,10.2
2023-09-27T18:18:23.139Z,9.5
2023-09-27T18:20:24.940Z,8
2023-09-27T18:35:43.240Z,9.8
2023-09-27T18:37:45.132Z,10.2
2023-09-27T18:56:04.538Z,12.4
2023-09-27T18:58:09.508Z,13
2023-09-27T19:00:11.346Z,11.9
2023-09-27T19:02:13.188Z,12.3
2023-09-27T19:04:15.023Z,12
2023-09-27T19:06:16.783Z,12.9
2023-09-27T19:08:18.593Z,14.6
2023-09-27T19:10:20.422Z,13.5
2023-09-27T19:12:25.408Z,13.4
2023-09-27T19:14:27.207Z,13.1
2023-09-27T19:16:29.118Z,12.3
2023-09-27T19:18:57.466Z,14.5
2023-09-27T19:20:59.331Z,13.2
2023-09-27T19:23:01.165Z,12.6
2023-09-27T19:25:06.118Z,15
2023-09-27T19:27:07.933Z,15.1
2023-09-27T19:29:09.814Z,13.2
2023-09-27T19:31:11.624Z,14.4
2023-09-27T19:33:13.405Z,14
2023-09-27T19:35:15.281Z,14.4
2023-09-27T19:37:17.051Z,13.2
2023-09-27T19:41:23.875Z,13.8
2023-09-27T19:43:25.695Z,15.7
2023-09-27T19:45:27.554Z,13.2
2023-09-27T19:49:31.217Z,12.3
2023-09-27T19:51:33.076Z,13.7
2023-09-27T19:55:39.834Z,14.2
2023-09-27T19:57:41.617Z,13.8
2023-09-27T20:01:45.318Z,14.5
2023-09-27T20:03:47.139Z,13.5
2023-09-27T20:05:48.943Z,14.3
2023-09-27T20:07:53.972Z,14.1
2023-09-27T20:11:57.578Z,12.9
2023-09-27T20:13:00.069Z,14.6
2023-09-27T20:23:12.392Z,14.7
2023-09-27T20:25:14.220Z,15.7
2023-09-27T20:27:16.025Z,14.6
2023-09-27T20:29:17.874Z,14.2
2023-09-27T20:31:19.714Z,14.9
2023-09-27T20:33:21.536Z,15.3
2023-09-27T20:35:26.525Z,14.4
2023-09-27T20:45:35.716Z,14.7
2023-09-27T20:47:37.528Z,15.4
2023-09-27T20:51:44.323Z,16.2
2023-09-27T20:53:46.173Z,14.3
2023-09-27T20:55:48.067Z,14.3
2023-09-27T20:57:49.813Z,14.5
2023-09-27T20:59:51.654Z,15.5
2023-09-27T21:01:53.665Z,15.2
2023-09-27T21:03:58.514Z,14.8
2023-09-27T21:06:00.318Z,12.3
2023-09-27T21:08:02.229Z,14.6
2023-09-27T21:09:04.666Z,14.7
2023-09-27T21:13:08.340Z,13.3
2023-09-27T21:21:18.814Z,13.6
2023-09-27T21:23:20.635Z,12.9
2023-09-27T21:25:22.486Z,14.7
2023-09-27T21:33:32.994Z,13.6
2023-09-27T21:43:42.182Z,13.8
2023-09-27T21:45:47.165Z,14.3
2023-09-27T21:47:49.022Z,14.3
2023-09-27T21:49:50.879Z,12.3
2023-09-27T21:51:52.670Z,12.6
2023-09-27T21:53:54.900Z,11.7
2023-09-27T21:55:56.377Z,12.5
2023-09-27T21:57:58.200Z,12.4
2023-09-27T22:00:03.199Z,12.6
2023-09-27T22:02:05.006Z,11.5
2023-09-27T22:04:06.896Z,10.9
2023-09-27T22:05:09.362Z,11.3
2023-09-27T22:09:12.980Z,10.1
2023-09-27T22:13:19.823Z,10.6
2023-09-27T22:15:21.678Z,9.3
2023-09-27T22:35:43.139Z,8.7
2023-09-27T22:41:51.817Z,7.5
2023-09-27T22:43:53.874Z,7.5
2023-09-27T22:45:55.521Z,6.9
2023-09-27T22:58:09.646Z,5.8
2023-09-27T23:00:11.464Z,5.4
2023-09-27T23:04:41.800Z,5.1
2023-09-27T23:06:43.640Z,5.2
2023-09-27T23:12:52.269Z,4.8
2023-09-27T23:14:54.089Z,4.1
2023-09-27T23:16:55.959Z,3.3
2023-09-27T23:18:57.762Z,3.7
2023-09-27T23:23:04.631Z,2.4
2023-09-27T23:25:06.426Z,3.2
2023-09-27T23:29:10.134Z,3
2023-09-27T23:31:12.207Z,2.3
2023-09-27T23:33:13.714Z,3.8
2023-09-27T23:35:15.598Z,3
2023-09-27T23:37:20.536Z,3.2
2023-09-27T23:39:22.376Z,2
2023-09-27T23:41:24.181Z,3.2
2023-09-27T23:51:36.478Z,2.7
2023-09-27T23:53:38.282Z,2.9
2023-09-27T23:56:44.147Z,2.2
2023-09-27T23:58:46.001Z,2.6
